Current Conditions

Updated: 22-Sep-2018 2:15 PM  
Summary / Temperature Wind Rain






Feels like: 91°F

1-hour difference
4.0°F 4.0°F warmer than last hour.

24-hour difference
0.5°F0.5°F warmer than yesterday at this time.

  Today Yesterday
High: 94.2°F
2:14 PM
95.5°F
3:14 PM
Low: 57.0°F
6:10 AM
57.8°F
5:00 AM
Wind from NW NW
0.2
Gust:  0.0 mph
0 Beaufort - Calm

Today: 4.6 - 9:14 AM
Month: 9.2 mph - Sep 1
Rain Today: 0.00 in
Current Rate (/hr): 0.000 in
Max Rate (/hr):
Rain Yesterday: 0.00 in
Storm Rain: 0.00 in
This Month: 0.00 in
Season Total: 6.40 in
Last Rain Event: 158 days ago
Humidity / Barometer Sun / Moon
Humidity: 24 Decreased 2.0% in the last hour.
Dew Point: 51.9°F Increased 1.4°F in the last hour.
Barometer: 29.851 inHg  
Baro Trend: Falling
Sunrise: 6:44 AM
Sunset: 6:54 PM
Moonrise: 5:31 PM
Moonset: 4:19 AM
Sky Conditions UV Index
Summary: Clear
Visibility: 10 miles
Clouds: None
KVIS - 1:56 PM PDT
Current: 0.0  None 
Saturday: 7.0  High 
Sunday: 7.2  High 
Air Quality Fire Danger
 Moderate 
Ozone 75 ppb
PM 2.5 13 μg/m3
2:10 PM PDT
Current: 85  High 

Local Alerts Local Forecast
Local NWS Alerts
Today

Sunny

High 94
Tonight

Clear

Low 58
Sun

Sunny

High 92
Sun night

Clear

Low 55
Mon

Sunny

High 90
Mon night

Clear

Low 57
Tue

Sunny

High 93

Local Radar Local Satellite Neighborhood Cam Sky Cam
Local Radar Local Satellite Neighborhood Cam Sky Cam


Nearby Personal Stations

Weather Underground PWS KCAEXETE7     Weather Underground PWS KCAEXETE6     Weather Underground PWS KCAEXETE11

Nearby Airport Stations

KVIS - Visalia, California, USA
Distance from station: W 14mi, 23km
Updated: Sat, 22-Sep-2018 1:56pm PDT
Clear
Clear
 Wind from W
Wind: W 8 mph , 13 km/h
Temperature: 91°F , 33°C
Dew Point: 52°F , 11°C
Humidity: 26%
Barometer: 29.90 inHg , 1012.5 hPa
Clouds: Clear
Visibility: 10 miles , 16 km
2018/09/22 20:56 KVIS 222056Z AUTO 26007KT 10SM CLR 33/11 A2990 RMK AO2 SLP128 T03280106 58024
KPTV - Porterville, California, USA
Distance from station: SSE 19mi, 31km
Updated: Sat, 22-Sep-2018 1:56pm PDT

 Wind from WNW
Wind: WNW 9 mph , 15 km/h
Temperature: 91°F , 33°C
Dew Point: 50°F , 10°C
Humidity: 24%
Barometer: 29.90 inHg , 1012.5 hPa
Visibility: 10 miles , 16 km
2018/09/22 20:56 KPTV 222056Z AUTO 30008KT 250V330 10SM 33/10 A2990 RMK AO2 SLP130 T03330100 58025 $

Metar display script from Saratoga-Weather.org



Visitor Map